岡山グライダークラブ活動状況掲示板あなたは無料カウンター人目の訪問者です

岡山グライダークラブ
岡山市浦安南町639-1 岡南飛行場
 使用機:シャイベ式 SF25C型 ファルケ   JA2330
      ヴァレンティン式17E型 タイフーン  JA2342
 練習日:毎日曜日  クラブルーム:電話 086-265-1810
この掲示板は岡山グライダークラブの活動状況をお知らせする掲示板です。
!!!この掲示板は投稿規制をしています。!!!
クラブ関連各種情報は 岡山グライダークラブクラブルーム      を       .
  ブリーフイング情報は  岡山グライダークラブブリーフィングルーム  をご覧下さい。 .
※写真はクリックすると拡大して見ることが出来ます。
岡南飛行場へのアクセス等は 岡南飛行場管理事務所 をご覧ください。
クラブの ホームページ ができました。

 
12月09日
by OGC at 2018/12/9(日) 19:20:04 No.20181209190530  削除コメント
1024 x 768 x 62,417バイト
No.1

12月09日
本日の参加者
  会員      14名
  その他      1名


@本日の様子




METAR
RJBK 090100Z 26009KT 30KM FEW025CU BKN/// 06/-03 Q1030 A3044
RKOB 090100Z 24006KT 9999 FEW020 BKN/// 03/M03 Q1029
RJOT 090100Z 27012KT 9999 FEW025 BKN/// 05/M03 Q1029
RJOA 090100Z 30007KT 260V350 9999 FEW025 SCT040 BKN050 03/M06 Q1029
TAF
RJOB 082305Z 0900/1006 29009KT 9999 FEW020 SCT040
         BECMG 0915/0918 35004KT
RJOT 082305Z 0900/1006 28010KT 9999 FEW025 SCT045
         BECMG 1000/1003 01004KT
RJOA 082306Z 0900/1006 30009KT 9999 FEW020 BKN045
         BECMG 0921/1000 05006KT

本日の天候は午前中、そこそこ風もありリフトもあったようですが、午後には風も穏やかになっていました。
一方、訓練フライトはNAV訓練の人気が高く、与島や高松タワー管制圏内、小豆島へNAV訓練に出ていました。
それから、本日は見学者があり、クラブ活動の様子を見学されました。



解散    17:00

1番機  11:15離陸 撤収機  16:35着陸 

SF25C JA2330 ファルケ     07Flt.3h10min  
17E   JA2342 タイフーン    05Flt.2h40min  
合計                    12Flt.5h50min

    << 戻る || ホームページ || 最新の掲示板へ